^^

..:: Storico WU ::..




Lo storico viene creato da WUnderground con i dati che la stazione Meteomincio invia al loro server. L' aggiornamento viene fatto ogni 5 minuti circa, tuttavia possono esserci intervalli pi¨ ampi a causa di errori, interruzioni di servizio o problemi nell' invio tramite FTP.


Storico stazione MeteoMincio
Giorno Sommario per Giugno 16, 2022 Unità:  Inglese    Metrico   Entrambi
Giorno Settimana Mese Anno
  Max: Min: Media:
Temperatura: 91.8 °F 67.8 °F 80.1 °F
Dew Point: 72.7 °F 61.2 °F 66.6 °F
Umidità: 82% 46.4% 64%
Velocità vento: 6.7mph 0mph 2.3mph
Raffica: 12mph - -
Direzione- - East
Pressione: 30 in 29.9 in -
Precipitazioni: 0 in    
 
 
Tabulato Dati per Giugno 16, 2022
Ora Temperatura Dew Point Pressione Direzione Velocità vento Raffica Umidità Intensità pioggia (oraria) Info solare Situazione
00:04 74.8 °F 61.3 °F 30 in NE 3.7 mph 6 mph 63.1% 0 in 0 W/m2
00:09 74.8 °F 61.3 °F 30 in NE 4.7 mph 7 mph 63% 0 in 0 W/m2
00:14 74.7 °F 61.3 °F 30 in NE 4.2 mph 7 mph 63% 0 in 0 W/m2
00:19 74.7 °F 61.5 °F 30 in NE 2.7 mph 6 mph 63.8% 0 in 0 W/m2
00:24 74.3 °F 61.5 °F 30 in NE 3.2 mph 5 mph 64.4% 0 in 0 W/m2
00:29 74.1 °F 61.7 °F 30 in NE 3.5 mph 5 mph 65% 0 in 0 W/m2
00:34 73.9 °F 61.5 °F 30 in NE 3 mph 4 mph 65% 0 in 0 W/m2
00:39 73.8 °F 61.3 °F 30 in ENE 2.2 mph 4 mph 65.3% 0 in 0 W/m2
00:44 73.6 °F 61.5 °F 30 in NE 0.9 mph 3 mph 65.9% 0 in 0 W/m2
00:49 73.2 °F 61.7 °F 30 in East 1.7 mph 3.5 mph 67.2% 0 in 0 W/m2
00:54 72.7 °F 61.7 °F 30 in East 2.2 mph 3.5 mph 68.6% 0 in 0 W/m2
00:59 72.5 °F 61.7 °F 30 in East 0.6 mph 3.5 mph 68.7% 0 in 0 W/m2
01:04 72.9 °F 61.5 °F 30 in East 0.1 mph 2 mph 68% 0 in 0 W/m2
01:09 72.7 °F 61.9 °F 30 in East 0.2 mph 1.2 mph 68.6% 0 in 0 W/m2
01:14 72.7 °F 61.9 °F 30 in East 0.5 mph 1.2 mph 69% 0 in 0 W/m2
01:19 72.7 °F 61.9 °F 30 in East 0.2 mph 2 mph 69% 0 in 0 W/m2
01:24 72.7 °F 61.7 °F 30 in East 1.2 mph 2.3 mph 68.5% 0 in 0 W/m2
01:29 72.7 °F 61.2 °F 30 in ENE 1.5 mph 2.3 mph 67.5% 0 in 0 W/m2
01:34 72.5 °F 61.3 °F 30 in ENE 1.4 mph 2.3 mph 68% 0 in 0 W/m2
01:39 72.3 °F 61.2 °F 30 in ENE 1.3 mph 2.3 mph 68% 0 in 0 W/m2
01:44 72.5 °F 61.2 °F 30 in ENE 1.4 mph 3.5 mph 67.8% 0 in 0 W/m2
01:49 72.5 °F 61.2 °F 30 in NE 1.6 mph 3.5 mph 67.8% 0 in 0 W/m2
01:54 72.5 °F 61.3 °F 30 in NNE 1.6 mph 3.5 mph 68% 0 in 0 W/m2
01:59 72.5 °F 61.3 °F 30 in NNE 1.7 mph 3 mph 68% 0 in 0 W/m2
02:04 72.7 °F 61.3 °F 30 in North 1.7 mph 3.5 mph 67.7% 0 in 0 W/m2
02:09 72.9 °F 61.5 °F 30 in North 1.2 mph 3.5 mph 67.8% 0 in 0 W/m2
02:13 72.7 °F 61.5 °F 30 in NNE 1.2 mph 3.5 mph 68% 0 in 0 W/m2
02:19 72.7 °F 61.3 °F 30 in NNE 1.5 mph 3.5 mph 68% 0 in 0 W/m2
02:24 72.7 °F 61.5 °F 30 in NNE 1.5 mph 3.5 mph 68.2% 0 in 0 W/m2
02:29 72.5 °F 62.1 °F 30 in NE 1.4 mph 3.5 mph 69.6% 0 in 0 W/m2
02:34 72.1 °F 61.9 °F 30 in NE 1 mph 3 mph 70% 0 in 0 W/m2
02:39 72 °F 62.1 °F 30 in NE 0.3 mph 2 mph 71.2% 0 in 0 W/m2
02:44 71.8 °F 62.2 °F 30 in NE 0.1 mph 1.2 mph 72% 0 in 0 W/m2
02:49 71.4 °F 62.1 °F 30 in NE 0.1 mph 2 mph 72.4% 0 in 0 W/m2
02:54 71.2 °F 62.2 °F 30 in NE 0.5 mph 2.3 mph 73% 0 in 0 W/m2
02:59 71.2 °F 62.1 °F 30 in NE 0.7 mph 2.3 mph 73% 0 in 0 W/m2
03:04 71.2 °F 62.1 °F 30 in NE 0.1 mph 2.3 mph 73.1% 0 in 0 W/m2
03:09 70.9 °F 62.1 °F 30 in ENE 0.7 mph 2.3 mph 73.7% 0 in 0 W/m2
03:14 70.5 °F 62.1 °F 30 in ENE 1.2 mph 2.3 mph 74.6% 0 in 0 W/m2
03:19 70.3 °F 62.1 °F 30 in ENE 1.2 mph 2.3 mph 75% 0 in 0 W/m2
03:24 70 °F 62.1 °F 30 in East 0.8 mph 2.3 mph 76% 0 in 0 W/m2
03:29 70 °F 62.1 °F 30 in East 0.5 mph 2.3 mph 76% 0 in 0 W/m2
03:34 70 °F 62.4 °F 30 in ENE 0.7 mph 3.5 mph 76.7% 0 in 0 W/m2
03:39 69.8 °F 62.1 °F 30 in ENE 1.7 mph 4 mph 76.5% 0 in 0 W/m2
03:44 69.6 °F 62.2 °F 30 in ENE 2.4 mph 3.5 mph 77% 0 in 0 W/m2
03:49 69.4 °F 62.1 °F 30 in East 2.5 mph 3.5 mph 77.5% 0 in 0 W/m2
03:53 69.3 °F 62.4 °F 30 in East 2.1 mph 3.5 mph 78.9% 0 in 0 W/m2
03:59 69.4 °F 62.2 °F 30 in East 1.1 mph 3.5 mph 78% 0 in 0 W/m2
04:03 69.6 °F 62.2 °F 30 in East 0.2 mph 3 mph 77.1% 0 in 0 W/m2
04:08 69.6 °F 62.2 °F 30 in South 0.2 mph 2 mph 77% 0 in 0 W/m2
04:13 69.6 °F 62.1 °F 30 in SSW 0.6 mph 2.3 mph 77.2% 0 in 0 W/m2
04:18 69.4 °F 62.2 °F 30 in SSW 0.8 mph 2.3 mph 77.7% 0 in 0 W/m2
04:24 69.4 °F 62.2 °F 30 in SSW 0.4 mph 2.3 mph 77.9% 0 in 0 W/m2
04:28 69.3 °F 62.1 °F 30 in NE 0.3 mph 3 mph 78% 0 in 0 W/m2
04:33 69.3 °F 62.2 °F 30 in NE 1.9 mph 3.5 mph 78.5% 0 in 0 W/m2
04:39 69.1 °F 62.4 °F 30 in NE 1.7 mph 3 mph 79% 0 in 0 W/m2
04:44 68.9 °F 62.1 °F 30 in NNE 1.9 mph 3.5 mph 78.8% 0 in 0 W/m2
04:48 69.4 °F 62.1 °F 30 in NNE 1.6 mph 3.5 mph 77.6% 0 in 0 W/m2
04:52 69.6 °F 62.1 °F 30 in NNE 1.4 mph 2.3 mph 77% 0 in 0 W/m2
04:58 69.6 °F 62.2 °F 30 in NNE 1.5 mph 3 mph 77% 0 in 0 W/m2
05:03 69.6 °F 62.1 °F 30 in NNE 1.8 mph 3.5 mph 77% 0 in 0 W/m2
05:09 69.4 °F 62.1 °F 30 in ENE 2 mph 3.5 mph 77% 0 in 0 W/m2
05:14 69.4 °F 62.1 °F 30 in ENE 2.1 mph 3.5 mph 77.5% 0 in 0 W/m2
05:19 69.3 °F 62.1 °F 30 in NE 1.8 mph 3.5 mph 78% 0 in 0 W/m2
05:24 69.1 °F 62.1 °F 30 in NE 1.6 mph 3.5 mph 78.6% 0 in 0 W/m2
05:29 68.9 °F 62.1 °F 30 in NE 1.6 mph 3 mph 79% 0 in 0 W/m2
05:34 68.9 °F 62.1 °F 30 in NE 1.1 mph 2.3 mph 79% 0 in 0 W/m2
05:39 68.7 °F 62.1 °F 30 in NE 0.9 mph 2.3 mph 79.2% 0 in 5 W/m2
05:44 68.7 °F 61.9 °F 30 in NW 1.1 mph 4 mph 79% 0 in 9 W/m2
05:49 68.2 °F 62.1 °F 30 in WSW 2.3 mph 4 mph 80.6% 0 in 11 W/m2
05:54 67.8 °F 61.9 °F 30 in WSW 0.9 mph 3.5 mph 81.6% 0 in 14 W/m2
05:59 67.8 °F 62.1 °F 30 in West 0.6 mph 2.3 mph 82% 0 in 18 W/m2
06:04 67.8 °F 62.2 °F 30 in West 0.6 mph 2.3 mph 82% 0 in 18 W/m2
06:09 67.8 °F 62.2 °F 30 in West 0.6 mph 2.3 mph 82% 0 in 25 W/m2
06:13 68 °F 62.2 °F 30 in West 0.4 mph 2.3 mph 82% 0 in 26 W/m2
06:19 68 °F 62.4 °F 30 in East 0.6 mph 2.3 mph 82% 0 in 32 W/m2
06:24 68.2 °F 62.4 °F 30 in East 0.7 mph 2.3 mph 82% 0 in 37 W/m2
06:29 68.4 °F 62.6 °F 30 in ENE 1.1 mph 3 mph 82% 0 in 44 W/m2
06:34 68.5 °F 62.4 °F 30 in East 1.1 mph 2.3 mph 80.5% 0 in 53 W/m2
06:39 68.9 °F 62.6 °F 30 in ENE 1.4 mph 3.5 mph 80% 0 in 62 W/m2
06:44 68.9 °F 62.6 °F 30 in ENE 1.5 mph 3.5 mph 79.8% 0 in 74 W/m2
06:49 69.3 °F 62.8 °F 30 in NE 0.7 mph 3 mph 80.2% 0 in 86 W/m2
06:54 69.4 °F 62.8 °F 30 in NE 1.4 mph 3.5 mph 79.3% 0 in 97 W/m2
06:59 70.2 °F 63 °F 30 in NE 1.1 mph 3.5 mph 77.6% 0 in 111 W/m2
07:04 70.5 °F 63.3 °F 30 in ENE 0.3 mph 3 mph 77.7% 0 in 118 W/m2
07:09 70.7 °F 63.1 °F 30 in Calm   2 mph 77.1% 0 in 128 W/m2
07:14 71.1 °F 63.1 °F 30 in ENE 0.4 mph 2.3 mph 76% 0 in 139 W/m2
07:19 71.4 °F 63.3 °F 30 in ENE 0.7 mph 3 mph 75.7% 0 in 162 W/m2
07:24 71.6 °F 63.5 °F 30 in East 1.4 mph 3.5 mph 75.3% 0 in 178 W/m2
07:29 72 °F 63.3 °F 30 in East 2.2 mph 4.6 mph 74.6% 0 in 186 W/m2
07:34 72 °F 63.5 °F 30 in East 2.5 mph 4.6 mph 74.6% 0 in 163 W/m2
07:39 72 °F 63.9 °F 30 in NE 2.1 mph 5 mph 75.4% 0 in 156 W/m2
07:44 72.1 °F 64 °F 30 in NNE 2.1 mph 3.5 mph 76% 0 in 151 W/m2
07:49 72.3 °F 64 °F 30 in NE 1.9 mph 3.5 mph 75% 0 in 199 W/m2
07:54 72.7 °F 63.7 °F 30 in ENE 1.7 mph 3.5 mph 73.4% 0 in 236 W/m2
07:59 73.2 °F 64.4 °F 30 in NE 1.9 mph 4 mph 73.9% 0 in 258 W/m2
08:00 73 °F 64 °F 30 in ENE 1 mph 4 mph 73% 0 in 258 W/m2
08:09 73.9 °F 64.4 °F 30 in NE 3.9 mph 6 mph 72% 0 in 281 W/m2
08:14 74.3 °F 64.9 °F 30 in ENE 3.4 mph 6 mph 72.7% 0 in 309 W/m2
08:19 74.7 °F 65.1 °F 30 in NE 2.4 mph 5 mph 71.8% 0 in 320 W/m2
08:24 75 °F 64.8 °F 30 in NE 1.5 mph 4 mph 70.7% 0 in 327 W/m2
08:29 75.2 °F 64.9 °F 30 in NNE 2.1 mph 4 mph 70.3% 0 in 352 W/m2
08:33 75.2 °F 65.3 °F 30 in NNE 1.9 mph 3.5 mph 71.2% 0 in 276 W/m2
08:39 75.2 °F 65.5 °F 30 in NNE 1.6 mph 4 mph 71.7% 0 in 283 W/m2
08:44 75.4 °F 65.8 °F 30 in NE 2.1 mph 4 mph 72.7% 0 in 318 W/m2
08:49 75.4 °F 65.7 °F 30 in North 1.9 mph 3.5 mph 72% 0 in 248 W/m2
08:54 75.6 °F 65.5 °F 30 in NNE 1.7 mph 3.5 mph 71% 0 in 227 W/m2
08:59 75.4 °F 65.1 °F 30 in NE 1.9 mph 3.5 mph 70.9% 0 in 334 W/m2
09:03 75.7 °F 65.3 °F 30 in North 2.1 mph 3.5 mph 70.3% 0 in 350 W/m2
09:09 76.1 °F 65.5 °F 30 in NE 2.9 mph 5 mph 69.8% 0 in 406 W/m2
09:14 76.3 °F 65.5 °F 30 in ENE 3 mph 5 mph 69.4% 0 in 448 W/m2
09:19 76.6 °F 66 °F 30 in North 2.1 mph 5 mph 69.8% 0 in 431 W/m2
09:23 76.8 °F 66 °F 30 in North 1.9 mph 3.5 mph 69.6% 0 in 327 W/m2
09:29 76.8 °F 66 °F 30 in NNE 1.4 mph 3.5 mph 69.5% 0 in 454 W/m2
09:34 77 °F 66 °F 30 in East 2.1 mph 3.5 mph 69% 0 in 454 W/m2
09:39 77.4 °F 65.7 °F 30 in ENE 1.8 mph 3.5 mph 67.4% 0 in 619 W/m2
09:44 77.7 °F 65.8 °F 30 in ESE 1.5 mph 4 mph 66.7% 0 in 526 W/m2
09:49 77.4 °F 65.3 °F 30 in ESE 2 mph 4 mph 66.4% 0 in 410 W/m2
09:54 77.5 °F 65.5 °F 30 in East 1.4 mph 3.5 mph 66.5% 0 in 404 W/m2
09:59 77.5 °F 65.7 °F 30 in ESE 2.3 mph 3.5 mph 66.9% 0 in 534 W/m2
10:04 77.9 °F 65.7 °F 30 in East 1.6 mph 3.5 mph 66.2% 0 in 455 W/m2
10:09 78.3 °F 65.8 °F 30 in East 1.7 mph 5 mph 65.9% 0 in 687 W/m2
10:14 78.8 °F 66 °F 30 in East 2.6 mph 7 mph 65.1% 0 in 687 W/m2
10:19 78.8 °F 66 °F 30 in East 2.8 mph 7 mph 64.9% 0 in 645 W/m2
10:24 79.2 °F 65.1 °F 30 in ESE 3.2 mph 7 mph 62.5% 0 in 656 W/m2
10:29 79.7 °F 65.5 °F 30 in ESE 3.4 mph 6 mph 62% 0 in 691 W/m2
10:34 80.1 °F 66.4 °F 30 in SSE 2.1 mph 6 mph 63.1% 0 in 691 W/m2
10:39 80.1 °F 65.8 °F 30 in East 3.9 mph 7 mph 62% 0 in 557 W/m2
10:44 80.2 °F 65.7 °F 30 in SE 3 mph 7 mph 61.5% 0 in 643 W/m2
10:49 80.4 °F 66.2 °F 30 in ESE 2 mph 7 mph 61.8% 0 in 642 W/m2
10:54 80.6 °F 66.4 °F 30 in East 3.1 mph 5 mph 62.3% 0 in 707 W/m2
10:59 81 °F 65.5 °F 30 in ESE 3.8 mph 6 mph 59.8% 0 in 707 W/m2
11:04 81.3 °F 65.3 °F 30 in ENE 2.1 mph 6 mph 58.5% 0 in 696 W/m2
11:09 81.7 °F 65.8 °F 30 in ENE 2.1 mph 6 mph 58.6% 0 in 724 W/m2
11:14 81.9 °F 65.3 °F 30 in East 3.1 mph 6 mph 57.4% 0 in 728 W/m2
11:19 82 °F 65.1 °F 30 in NE 3.2 mph 7 mph 56.5% 0 in 738 W/m2
11:24 82.2 °F 65.5 °F 30 in East 3 mph 7 mph 57% 0 in 754 W/m2
11:28 82.4 °F 66 °F 30 in SE 3.4 mph 7 mph 58% 0 in 759 W/m2
11:34 83.3 °F 66.9 °F 30 in ENE 2.7 mph 7 mph 57.7% 0 in 773 W/m2
11:39 83.8 °F 67.6 °F 30 in ENE 3.2 mph 7 mph 58.3% 0 in 773 W/m2
11:44 83.7 °F 66.9 °F 30 in ESE 3.9 mph 7 mph 57.2% 0 in 782 W/m2
11:49 83.5 °F 67.8 °F 30 in East 4.2 mph 7 mph 59.3% 0 in 793 W/m2
11:54 84 °F 68.4 °F 30 in NE 3.7 mph 7 mph 59.3% 0 in 798 W/m2
11:59 84.7 °F 68.4 °F 30 in ENE 3.5 mph 7 mph 58% 0 in 800 W/m2
12:04 85.3 °F 68.5 °F 30 in ENE 4.5 mph 7 mph 57.3% 0 in 802 W/m2
12:09 84.6 °F 68 °F 30 in ENE 5.2 mph 7 mph 57.8% 0 in 807 W/m2
12:14 84.4 °F 67.6 °F 30 in ESE 4.2 mph 7 mph 57.5% 0 in 821 W/m2
12:19 84 °F 67.5 °F 30 in SE 3.2 mph 6 mph 57.5% 0 in 835 W/m2
12:24 84.6 °F 68 °F 30 in SSE 2.9 mph 5.8 mph 57.7% 0 in 835 W/m2
12:29 84.6 °F 67.8 °F 30 in ESE 2.7 mph 6 mph 57% 0 in 805 W/m2
12:34 84.6 °F 67.5 °F 30 in ESE 3.7 mph 7 mph 56.5% 0 in 812 W/m2
12:39 84.9 °F 68.2 °F 30 in ESE 4.3 mph 8.1 mph 57.2% 0 in 854 W/m2
12:44 85.3 °F 68 °F 30 in ESE 4.3 mph 8.1 mph 56.4% 0 in 902 W/m2
12:49 85.5 °F 68.5 °F 30 in SE 3 mph 8 mph 57% 0 in 911 W/m2
12:54 85.8 °F 68.7 °F 30 in East 2.6 mph 7 mph 56.7% 0 in 928 W/m2
12:59 86.4 °F 69.4 °F 30 in NE 3.1 mph 8.1 mph 57.1% 0 in 879 W/m2
13:04 86.2 °F 69.1 °F 30 in NE 3.1 mph 8.1 mph 57.2% 0 in 712 W/m2
13:09 85.6 °F 69.1 °F 30 in ENE 3.3 mph 8 mph 57.8% 0 in 619 W/m2
13:14 85.5 °F 68.7 °F 30 in ESE 4.9 mph 8 mph 57.5% 0 in 756 W/m2
13:19 86.2 °F 69.4 °F 30 in ESE 4.7 mph 8 mph 57.6% 0 in 919 W/m2
13:24 86.9 °F 69.8 °F 30 in NE 3.7 mph 7 mph 57% 0 in 935 W/m2
13:29 87.1 °F 69.3 °F 30 in East 2.9 mph 7 mph 55.5% 0 in 983 W/m2
13:34 87.1 °F 69.3 °F 30 in ENE 3.4 mph 5 mph 55.6% 0 in 983 W/m2
13:39 86.5 °F 68.7 °F 30 in SE 2.4 mph 5 mph 55.6% 0 in 666 W/m2
13:44 86.2 °F 68.7 °F 30 in SSE 3 mph 5 mph 56.2% 0 in 684 W/m2
13:49 86.4 °F 69.3 °F 30 in WSW 1.9 mph 4 mph 57% 0 in 751 W/m2
13:54 87.1 °F 68.7 °F 30 in NW 2.2 mph 4 mph 54.4% 0 in 773 W/m2
13:59 86.9 °F 68.7 °F 30 in East 1.6 mph 4 mph 54.9% 0 in 868 W/m2
14:04 88 °F 70.7 °F 30 in NNE 3.1 mph 8.1 mph 56.4% 0 in 879 W/m2
14:09 88.5 °F 70 °F 30 in NE 4.1 mph 8.1 mph 54.6% 0 in 875 W/m2
14:14 87.8 °F 70 °F 30 in East 3.6 mph 7 mph 55.5% 0 in 858 W/m2
14:19 87.6 °F 69.6 °F 30 in ESE 3.2 mph 7 mph 55.5% 0 in 851 W/m2
14:24 88.2 °F 70.3 °F 30 in NNE 2.3 mph 7 mph 55.6% 0 in 847 W/m2
14:29 89.1 °F 70.5 °F 30 in NE 3.2 mph 5 mph 54.5% 0 in 835 W/m2
14:34 88.9 °F 69.6 °F 30 in ENE 2.5 mph 5 mph 53.4% 0 in 828 W/m2
14:39 88.5 °F 69.8 °F 30 in ENE 2.5 mph 7 mph 54% 0 in 826 W/m2
14:44 88.5 °F 69.4 °F 30 in NE 3.5 mph 7 mph 53.5% 0 in 812 W/m2
14:49 88.9 °F 70 °F 30 in NNW 2.8 mph 7 mph 53.9% 0 in 814 W/m2
14:54 89.2 °F 70 °F 30 in NE 3.7 mph 7 mph 53.1% 0 in 814 W/m2
14:59 88.9 °F 69.4 °F 30 in East 4.7 mph 7 mph 52.7% 0 in 800 W/m2
15:04 89.4 °F 69.8 °F 30 in NNE 4.7 mph 8.1 mph 52.5% 0 in 800 W/m2
15:09 89.8 °F 70.5 °F 30 in NE 4.5 mph 8.1 mph 53.1% 0 in 796 W/m2
15:14 90.3 °F 70.7 °F 30 in North 3.5 mph 8 mph 52.6% 0 in 788 W/m2
15:19 90.3 °F 70.9 °F 30 in ENE 3 mph 8.1 mph 53% 0 in 782 W/m2
15:24 89.6 °F 68.7 °F 30 in ESE 4.3 mph 8.1 mph 50.2% 0 in 777 W/m2
15:29 89.2 °F 68.9 °F 30 in East 5 mph 8 mph 51.2% 0 in 772 W/m2
15:34 89.6 °F 69.8 °F 30 in East 4 mph 7 mph 52.2% 0 in 756 W/m2
15:39 90.3 °F 69.1 °F 30 in NNW 2.4 mph 7 mph 49.8% 0 in 747 W/m2
15:44 90.5 °F 69.6 °F 30 in North 1.7 mph 5 mph 50.4% 0 in 742 W/m2
15:49 90 °F 69.3 °F 30 in NE 3 mph 6 mph 50.7% 0 in 729 W/m2
15:54 89.8 °F 69.3 °F 30 in NNE 2.9 mph 6 mph 51% 0 in 726 W/m2
15:59 90.1 °F 69.1 °F 30 in NNW 2.5 mph 6 mph 50.3% 0 in 722 W/m2
16:04 90.1 °F 70.3 °F 30 in East 2 mph 5 mph 52.3% 0 in 715 W/m2
16:06 90.5 °F 71.1 °F 30 in SSW 1.8 mph 5 mph 53% 0 in 707 W/m2
16:14 90.9 °F 69.6 °F 30 in NNE 4 mph 7 mph 49.9% 0 in 707 W/m2
16:19 91 °F 68.5 °F 30 in North 3.5 mph 7 mph 47.8% 0 in 686 W/m2
16:24 90.9 °F 67.5 °F 29.9 in West 2.2 mph 7 mph 46.4% 0 in 670 W/m2
16:29 90.5 °F 68.7 °F 29.9 in ESE 1.8 mph 3.5 mph 49% 0 in 659 W/m2
16:34 90.3 °F 69.4 °F 29.9 in ESE 2.7 mph 8.1 mph 50.3% 0 in 642 W/m2
16:39 90.3 °F 69.6 °F 29.9 in ESE 5.3 mph 8.1 mph 50.9% 0 in 626 W/m2
16:44 90 °F 69.1 °F 29.9 in East 4.4 mph 7 mph 50.4% 0 in 617 W/m2
16:49 90 °F 69.3 °F 29.9 in ESE 3.7 mph 6 mph 50.7% 0 in 608 W/m2
16:54 90.1 °F 68.7 °F 29.9 in SSE 2.5 mph 5 mph 49.5% 0 in 608 W/m2
16:59 90.3 °F 69.1 °F 29.9 in ESE 1.9 mph 5 mph 50% 0 in 601 W/m2
17:04 90.3 °F 69.3 °F 29.9 in ESE 1.9 mph 5 mph 50.3% 0 in 598 W/m2
17:09 90.7 °F 69.4 °F 29.9 in ENE 2.4 mph 5 mph 50.2% 0 in 587 W/m2
17:14 91.4 °F 70.2 °F 29.9 in NNE 2.2 mph 5 mph 50.3% 0 in 568 W/m2
17:19 91.6 °F 69.8 °F 29.9 in NE 1.3 mph 4 mph 49.3% 0 in 554 W/m2
17:24 91.6 °F 69.4 °F 29.9 in NW 1 mph 3.5 mph 48.5% 0 in 550 W/m2
17:29 91.8 °F 69.6 °F 29.9 in West 2.1 mph 4 mph 48.7% 0 in 522 W/m2
17:34 91.8 °F 69.1 °F 29.9 in NW 2.1 mph 4 mph 47.6% 0 in 506 W/m2
17:39 91.8 °F 68.7 °F 29.9 in WNW 2.2 mph 4 mph 47% 0 in 490 W/m2
17:44 91.8 °F 68.7 °F 29.9 in NNW 2.1 mph 6 mph 47.3% 0 in 473 W/m2
17:49 91.8 °F 69.6 °F 29.9 in NNW 2.2 mph 6 mph 48.5% 0 in 462 W/m2
17:54 91.6 °F 69.3 °F 29.9 in WNW 1.5 mph 6 mph 48.3% 0 in 445 W/m2
17:59 91.8 °F 69.8 °F 29.9 in East 1.1 mph 4 mph 48.8% 0 in 429 W/m2
18:04 90.9 °F 69.6 °F 29.9 in ESE 2.5 mph 4 mph 49.9% 0 in 415 W/m2
18:09 90.7 °F 69.1 °F 29.9 in ESE 1.7 mph 3.5 mph 49.3% 0 in 403 W/m2
18:14 90.5 °F 68.9 °F 29.9 in ESE 2.1 mph 4 mph 49.3% 0 in 387 W/m2
18:19 90.5 °F 68.9 °F 29.9 in ESE 2.8 mph 4 mph 49.2% 0 in 371 W/m2
18:24 90.7 °F 69.1 °F 29.9 in SE 2.2 mph 4 mph 49.3% 0 in 364 W/m2
18:29 90.7 °F 70.2 °F 29.9 in SE 1.4 mph 3.5 mph 51.1% 0 in 345 W/m2
18:34 90.7 °F 69.8 °F 29.9 in ESE 2.1 mph 4.6 mph 50.7% 0 in 323 W/m2
18:39 90.5 °F 69.4 °F 29.9 in ESE 2.2 mph 5 mph 50.2% 0 in 302 W/m2
18:44 90.5 °F 69.6 °F 29.9 in ESE 1.2 mph 5 mph 50.6% 0 in 290 W/m2
18:49 90.3 °F 69.8 °F 29.9 in ESE 1.1 mph 3.5 mph 51.1% 0 in 274 W/m2
18:54 90 °F 70.5 °F 29.9 in ESE 1.9 mph 3.5 mph 53% 0 in 257 W/m2
18:59 89.4 °F 71.1 °F 29.9 in ESE 2.5 mph 7 mph 54.8% 0 in 244 W/m2
19:04 89.2 °F 70.5 °F 29.9 in ESE 3.6 mph 7 mph 54.1% 0 in 229 W/m2
19:09 89.2 °F 70.2 °F 29.9 in East 3.9 mph 5 mph 53.6% 0 in 211 W/m2
19:14 89.2 °F 70.5 °F 29.9 in East 3.4 mph 5 mph 54.3% 0 in 192 W/m2
19:19 89.2 °F 70.7 °F 29.9 in ENE 2.5 mph 5 mph 54.3% 0 in 186 W/m2
19:24 89.4 °F 70.7 °F 29.9 in ENE 2.1 mph 5 mph 54.3% 0 in 183 W/m2
19:29 89.6 °F 70.7 °F 29.9 in ENE 2.2 mph 4 mph 54.1% 0 in 162 W/m2
19:34 89.6 °F 70.9 °F 29.9 in ENE 2.2 mph 3.5 mph 54.2% 0 in 149 W/m2
19:39 89.4 °F 71.4 °F 29.9 in ENE 2.2 mph 3.5 mph 55.6% 0 in 107 W/m2
19:44 88.9 °F 71.6 °F 29.9 in ENE 1.8 mph 3.5 mph 57% 0 in 100 W/m2
19:49 88.5 °F 72.1 °F 29.9 in ENE 1.6 mph 3.5 mph 58.4% 0 in 100 W/m2
19:54 88.3 °F 72.7 °F 29.9 in ENE 1.5 mph 3.5 mph 60% 0 in 93 W/m2
19:59 88 °F 72.7 °F 29.9 in ENE 2.1 mph 3.5 mph 60.8% 0 in 63 W/m2
20:04 87.3 °F 72.7 °F 29.9 in ENE 1.8 mph 3.5 mph 61.9% 0 in 69 W/m2
20:09 87.3 °F 72.1 °F 29.9 in ENE 1.4 mph 3 mph 60.7% 0 in 65 W/m2
20:12 87.3 °F 71.8 °F 29.9 in ENE 1.1 mph 2.3 mph 60% 0 in 53 W/m2
20:19 87.1 °F 71.4 °F 29.9 in ENE 0.9 mph 2.3 mph 59.7% 0 in 53 W/m2
20:24 86.9 °F 71.2 °F 29.9 in East 1 mph 2.3 mph 60% 0 in 30 W/m2
20:29 86.5 °F 71.4 °F 29.9 in ENE 1.4 mph 3.5 mph 61.1% 0 in 25 W/m2
20:34 86.2 °F 71.6 °F 29.9 in ENE 1.6 mph 3.5 mph 62.2% 0 in 21 W/m2
20:39 85.8 °F 71.6 °F 29.9 in ENE 1.2 mph 3.5 mph 62.5% 0 in 19 W/m2
20:44 85.6 °F 71.4 °F 29.9 in East 1.2 mph 2.3 mph 62.7% 0 in 14 W/m2
20:49 85.3 °F 71.4 °F 29.9 in East 1.4 mph 3.5 mph 63.5% 0 in 14 W/m2
20:54 85.1 °F 71.6 °F 29.9 in ENE 2.1 mph 3.5 mph 64.2% 0 in 11 W/m2
20:59 85.1 °F 71.2 °F 29.9 in ENE 1.7 mph 3.5 mph 63.2% 0 in 7 W/m2
21:04 85.1 °F 70.9 °F 29.9 in ENE 1.5 mph 3.5 mph 62.5% 0 in 5 W/m2
21:09 84.9 °F 70.9 °F 29.9 in ENE 1.8 mph 3.5 mph 63% 0 in 0 W/m2
21:14 84.7 °F 70.7 °F 29.9 in ENE 2.1 mph 3.5 mph 63% 0 in 0 W/m2
21:19 84.6 °F 70.3 °F 29.9 in ENE 2.2 mph 3.5 mph 62.6% 0 in 0 W/m2
21:24 84.2 °F 70 °F 29.9 in East 1.7 mph 3.5 mph 62.3% 0 in 0 W/m2
21:29 83.7 °F 70.5 °F 29.9 in East 1.8 mph 3.5 mph 64.9% 0 in 0 W/m2
21:34 83.3 °F 70.5 °F 29.9 in East 1.5 mph 3.5 mph 65.7% 0 in 0 W/m2
21:39 82.6 °F 70.5 °F 29.9 in East 1.8 mph 3.5 mph 66.9% 0 in 0 W/m2
21:44 82.4 °F 70.9 °F 29.9 in East 1.6 mph 3.5 mph 68.4% 0 in 0 W/m2
21:49 82.2 °F 70.7 °F 29.9 in East 1.7 mph 3 mph 68.2% 0 in 0 W/m2
21:54 82.2 °F 70.5 °F 29.9 in East 1.9 mph 3.5 mph 67.8% 0 in 0 W/m2
21:59 82.4 °F 70.3 °F 29.9 in ENE 2.1 mph 3.5 mph 66.9% 0 in 0 W/m2
22:04 82.6 °F 70.2 °F 30 in ENE 2.1 mph 3.5 mph 66% 0 in 0 W/m2
22:09 82.6 °F 70.3 °F 30 in ENE 1.7 mph 5 mph 66.7% 0 in 0 W/m2
22:14 82.2 °F 70 °F 30 in ENE 4.1 mph 12 mph 66.7% 0 in 0 W/m2
22:19 81.7 °F 70 °F 30 in ENE 6.7 mph 12 mph 67.6% 0 in 0 W/m2
22:24 80.8 °F 69.6 °F 30 in ENE 5.6 mph 12 mph 68.6% 0 in 0 W/m2
22:29 80.4 °F 69.3 °F 30 in ENE 4.3 mph 9 mph 69% 0 in 0 W/m2
22:34 80.1 °F 69.3 °F 30 in ENE 5.1 mph 7 mph 69.7% 0 in 0 W/m2
22:39 79.5 °F 69.1 °F 30 in East 4 mph 7 mph 70.5% 0 in 0 W/m2
22:44 79.3 °F 68.9 °F 30 in East 4.5 mph 7 mph 70.8% 0 in 0 W/m2
22:49 79.2 °F 68.9 °F 30 in East 4.3 mph 7 mph 71% 0 in 0 W/m2
22:54 78.8 °F 68.7 °F 30 in ENE 3 mph 6 mph 71% 0 in 0 W/m2
22:59 78.6 °F 68.5 °F 30 in ENE 3.2 mph 7 mph 71% 0 in 0 W/m2
23:04 78.4 °F 68.4 °F 30 in NE 4.1 mph 7 mph 71% 0 in 0 W/m2
23:09 78.4 °F 68.2 °F 30 in NE 3.7 mph 7 mph 71% 0 in 0 W/m2
23:14 78.3 °F 68 °F 30 in ENE 4 mph 7 mph 71% 0 in 0 W/m2
23:19 77.9 °F 67.8 °F 30 in ENE 4.1 mph 6 mph 71% 0 in 0 W/m2
23:24 77.9 °F 67.6 °F 30 in ENE 4.3 mph 8.1 mph 71% 0 in 0 W/m2
23:29 77.7 °F 67.6 °F 30 in ENE 5.3 mph 8.1 mph 71% 0 in 0 W/m2
23:34 77.5 °F 67.5 °F 30 in ENE 6.3 mph 9.2 mph 71% 0 in 0 W/m2
23:39 77.4 °F 67.3 °F 30 in ENE 5.9 mph 9.2 mph 71% 0 in 0 W/m2
23:44 77 °F 66.9 °F 30 in ENE 6.3 mph 9.2 mph 71% 0 in 0 W/m2
23:49 76.8 °F 66.7 °F 30 in ENE 6.2 mph 9.2 mph 71% 0 in 0 W/m2
23:54 76.8 °F 66.7 °F 30 in ENE 5.5 mph 9 mph 71% 0 in 0 W/m2
23:59 76.6 °F 66.6 °F 30 in East 4.8 mph 8.1 mph 71% 0 in 0 W/m2
Stazione Meteorologica MeteoMincio Rivalta s/M (MN)
Con i complimenti di Weather Underground - 4 mb


METEO PILLOLE
Temperatura più alta in Italia
Floridia - Siracusa
L' 11 agosto 2021 alle 13:14 si registrano ben 48,8°C.

Do NOT follow this link or you will be banned from the site!